Time;durP1;ratioP1;P1;durP2;ratioP2;P2;SDS_P1;SDS_P2;PMS_P1;PMS_P2;Temp;Humidity;BMP_temperature;BMP_pressure;BME280_temperature;BME280_humidity;BME280_pressure;Samples;Min_cycle;Max_cycle;Signal;HPM_P1;HPM_P2
2023/07/11 00:00:39;;;;;;;8.85;1.48;;;;;;;;;;4975198;28;20054;-70
2023/07/11 00:03:04;;;;;;;6.70;1.50;;;;;;;;;;4975284;28;20042;-70
2023/07/11 00:05:30;;;;;;;6.85;1.35;;;;;;;;;;4975399;28;20100;-70
2023/07/11 00:07:55;;;;;;;6.13;1.23;;;;;;;;;;4974718;28;20125;-70
2023/07/11 00:10:20;;;;;;;5.95;1.30;;;;;;;;;;4975161;28;20045;-70
2023/07/11 00:12:46;;;;;;;5.15;1.20;;;;;;;;;;4974886;28;20042;-71
2023/07/11 00:15:13;;;;;;;4.18;1.05;;;;;;;;;;4974246;28;20038;-70
2023/07/11 00:17:39;;;;;;;5.00;1.15;;;;;;;;;;4974165;28;20035;-70
2023/07/11 00:20:05;;;;;;;6.00;1.20;;;;;;;;;;4975052;28;20047;-70
2023/07/11 00:22:32;;;;;;;4.82;1.50;;;;;;;;;;4974103;28;20042;-70
2023/07/11 00:24:57;;;;;;;5.10;1.00;;;;;;;;;;4974994;28;20090;-70
2023/07/11 00:27:23;;;;;;;2.35;0.85;;;;;;;;;;4974945;28;20042;-71
2023/07/11 00:29:49;;;;;;;5.43;1.02;;;;;;;;;;4974819;28;20067;-70
2023/07/11 00:32:14;;;;;;;2.10;1.10;;;;;;;;;;4974846;28;20069;-70
2023/07/11 00:34:40;;;;;;;3.53;0.95;;;;;;;;;;4974516;28;20495;-70
2023/07/11 00:37:05;;;;;;;3.08;1.00;;;;;;;;;;4974950;28;20437;-70
2023/07/11 00:39:32;;;;;;;1.63;0.68;;;;;;;;;;4974582;28;20047;-70
2023/07/11 00:41:58;;;;;;;4.00;0.80;;;;;;;;;;4972749;28;20113;-70
2023/07/11 00:44:24;;;;;;;2.15;0.80;;;;;;;;;;4967116;28;20901;-70
2023/07/11 00:46:50;;;;;;;4.22;1.00;;;;;;;;;;4973030;28;20459;-70
2023/07/11 00:49:17;;;;;;;1.90;0.70;;;;;;;;;;4972390;28;20042;-70
2023/07/11 00:51:46;;;;;;;3.42;0.73;;;;;;;;;;4972938;28;20046;-70
2023/07/11 00:54:13;;;;;;;3.50;0.60;;;;;;;;;;4973843;28;20528;-70
2023/07/11 00:56:41;;;;;;;2.75;0.95;;;;;;;;;;4974076;28;20097;-70
2023/07/11 00:59:08;;;;;;;1.83;0.65;;;;;;;;;;4973850;28;20030;-71
2023/07/11 01:01:33;;;;;;;2.17;0.70;;;;;;;;;;4973324;28;20047;-70
2023/07/11 01:03:58;;;;;;;2.03;0.60;;;;;;;;;;4973311;28;20077;-70
2023/07/11 01:06:27;;;;;;;4.20;0.90;;;;;;;;;;4974474;28;20391;-70
2023/07/11 01:08:54;;;;;;;1.35;0.63;;;;;;;;;;4974274;28;20125;-70
2023/07/11 01:11:22;;;;;;;3.47;1.13;;;;;;;;;;4974074;28;20039;-70
2023/07/11 01:13:48;;;;;;;5.50;0.80;;;;;;;;;;4972774;28;20475;-70
2023/07/11 01:16:13;;;;;;;4.15;0.77;;;;;;;;;;4974313;28;20041;-71
2023/07/11 01:18:39;;;;;;;3.88;0.70;;;;;;;;;;4974211;28;20053;-70
2023/07/11 01:21:05;;;;;;;3.63;1.02;;;;;;;;;;4974490;28;20027;-70
2023/07/11 01:23:31;;;;;;;8.82;1.02;;;;;;;;;;4972792;28;20114;-70
2023/07/11 01:26:06;;;;;;;3.75;0.88;;;;;;;;;;4973393;28;20122;-70
2023/07/11 01:28:31;;;;;;;1.92;0.60;;;;;;;;;;4972432;28;20098;-71
2023/07/11 01:30:56;;;;;;;2.83;0.73;;;;;;;;;;4974551;28;20046;-70
2023/07/11 01:33:26;;;;;;;5.05;0.80;;;;;;;;;;4974018;28;20027;-70
2023/07/11 01:35:52;;;;;;;1.73;0.82;;;;;;;;;;4974286;28;20090;-70
2023/07/11 01:38:20;;;;;;;1.52;0.50;;;;;;;;;;4969810;28;20042;-70
2023/07/11 01:40:46;;;;;;;1.52;0.30;;;;;;;;;;4977341;28;20030;-70
2023/07/11 01:43:12;;;;;;;1.80;0.50;;;;;;;;;;4977720;28;20043;-70
2023/07/11 01:45:37;;;;;;;3.00;0.50;;;;;;;;;;5009751;28;20054;-70
2023/07/11 01:48:02;;;;;;;1.55;0.60;;;;;;;;;;4977861;28;20455;-70
2023/07/11 01:50:28;;;;;;;0.70;0.45;;;;;;;;;;4977895;28;20065;-70
2023/07/11 01:52:53;;;;;;;3.55;0.65;;;;;;;;;;4977806;28;20043;-70
2023/07/11 01:55:18;;;;;;;2.17;0.60;;;;;;;;;;4978154;28;20382;-71
2023/07/11 01:57:44;;;;;;;1.55;0.70;;;;;;;;;;4976471;28;20043;-70
2023/07/11 02:00:10;;;;;;;2.80;0.75;;;;;;;;;;4976064;28;20057;-70
2023/07/11 02:02:35;;;;;;;4.43;1.33;;;;;;;;;;4977492;28;20042;-70
2023/07/11 02:05:01;;;;;;;12.77;1.55;;;;;;;;;;4977671;28;20042;-70
2023/07/11 02:07:26;;;;;;;5.72;1.13;;;;;;;;;;4976797;28;21219;-70
2023/07/11 02:09:51;;;;;;;5.60;1.23;;;;;;;;;;4977232;28;20513;-70
2023/07/11 02:12:17;;;;;;;4.95;1.42;;;;;;;;;;4977688;28;20487;-70
2023/07/11 02:14:42;;;;;;;6.55;1.75;;;;;;;;;;4977317;28;20442;-70
2023/07/11 02:17:08;;;;;;;6.20;1.42;;;;;;;;;;4977673;28;20156;-70
2023/07/11 02:19:34;;;;;;;8.85;1.20;;;;;;;;;;4977109;28;20487;-70
2023/07/11 02:21:59;;;;;;;7.45;1.70;;;;;;;;;;4976455;28;20043;-70
2023/07/11 02:24:24;;;;;;;6.22;1.60;;;;;;;;;;4977237;28;20090;-70
2023/07/11 02:26:50;;;;;;;5.45;1.73;;;;;;;;;;4977358;28;20034;-70
2023/07/11 02:29:15;;;;;;;8.80;1.70;;;;;;;;;;4977026;28;20131;-70
2023/07/11 02:31:41;;;;;;;9.45;2.08;;;;;;;;;;4977293;28;20027;-70
2023/07/11 02:34:06;;;;;;;11.95;1.90;;;;;;;;;;4977151;28;20054;-70
2023/07/11 02:36:32;;;;;;;11.63;1.60;;;;;;;;;;4977106;28;20067;-70
2023/07/11 02:38:58;;;;;;;14.07;1.90;;;;;;;;;;4977103;28;20043;-70
2023/07/11 02:41:25;;;;;;;14.30;2.20;;;;;;;;;;4975873;28;20042;-70
2023/07/11 02:43:51;;;;;;;10.25;1.83;;;;;;;;;;4976606;28;20047;-70
2023/07/11 02:46:16;;;;;;;8.77;1.70;;;;;;;;;;4976950;28;20489;-70
2023/07/11 02:48:42;;;;;;;7.95;1.73;;;;;;;;;;4975828;28;20043;-70
2023/07/11 02:51:08;;;;;;;11.70;1.77;;;;;;;;;;4976541;28;20037;-70
2023/07/11 02:53:33;;;;;;;11.63;2.28;;;;;;;;;;4976875;28;20410;-70
2023/07/11 02:55:58;;;;;;;10.90;1.92;;;;;;;;;;4975914;28;20085;-70
2023/07/11 02:58:24;;;;;;;15.68;2.03;;;;;;;;;;4976383;28;20042;-70
2023/07/11 03:00:51;;;;;;;13.82;2.20;;;;;;;;;;4976219;28;20537;-70
2023/07/11 03:03:17;;;;;;;11.40;2.00;;;;;;;;;;4976277;28;20479;-70
2023/07/11 03:05:44;;;;;;;11.07;2.22;;;;;;;;;;4959449;28;20434;-70
2023/07/11 03:08:09;;;;;;;12.55;2.13;;;;;;;;;;4974003;28;20482;-70
2023/07/11 03:10:35;;;;;;;10.45;2.13;;;;;;;;;;4976379;28;20046;-70
2023/07/11 03:13:00;;;;;;;12.65;2.05;;;;;;;;;;4976284;28;20049;-70
2023/07/11 03:15:25;;;;;;;13.57;3.05;;;;;;;;;;4976586;28;20430;-70
2023/07/11 03:17:50;;;;;;;11.60;2.17;;;;;;;;;;4975240;28;20497;-70
2023/07/11 03:20:16;;;;;;;10.38;2.17;;;;;;;;;;4976145;28;20483;-70
2023/07/11 03:22:41;;;;;;;10.18;2.10;;;;;;;;;;4976137;28;20039;-70
2023/07/11 03:25:07;;;;;;;11.57;2.90;;;;;;;;;;4976147;28;20038;-70
2023/07/11 03:27:32;;;;;;;17.77;2.97;;;;;;;;;;4975839;28;20120;-70
2023/07/11 03:29:58;;;;;;;14.30;2.35;;;;;;;;;;4976294;28;20530;-70
2023/07/11 03:32:23;;;;;;;14.07;3.00;;;;;;;;;;4976364;28;20081;-70
2023/07/11 03:34:48;;;;;;;16.92;2.58;;;;;;;;;;4975615;28;20047;-70
2023/07/11 03:37:14;;;;;;;6.50;2.10;;;;;;;;;;4975885;28;20042;-70
2023/07/11 03:39:39;;;;;;;14.73;3.00;;;;;;;;;;4975868;28;20066;-70
2023/07/11 03:42:04;;;;;;;16.83;2.85;;;;;;;;;;4975982;28;20042;-70
2023/07/11 03:44:30;;;;;;;10.50;2.40;;;;;;;;;;4975729;28;20157;-71
2023/07/11 03:46:55;;;;;;;13.70;2.80;;;;;;;;;;4976169;28;20094;-70
2023/07/11 03:49:20;;;;;;;19.73;3.65;;;;;;;;;;4974298;28;20491;-70
2023/07/11 03:51:46;;;;;;;17.33;3.58;;;;;;;;;;4976029;28;20481;-70
2023/07/11 03:54:11;;;;;;;13.48;2.92;;;;;;;;;;4975658;28;20463;-70
2023/07/11 03:56:36;;;;;;;20.23;3.60;;;;;;;;;;4975597;28;20487;-70
2023/07/11 03:59:02;;;;;;;18.85;2.60;;;;;;;;;;4975467;28;20530;-70
2023/07/11 04:01:27;;;;;;;24.88;3.65;;;;;;;;;;4975593;28;20125;-70
2023/07/11 04:03:52;;;;;;;12.50;2.90;;;;;;;;;;4974132;28;20117;-70
2023/07/11 04:06:18;;;;;;;14.85;3.28;;;;;;;;;;4975674;28;20471;-70
2023/07/11 04:08:43;;;;;;;12.75;3.30;;;;;;;;;;4973875;28;20518;-70
2023/07/11 04:11:09;;;;;;;13.02;3.10;;;;;;;;;;4975332;28;20395;-70
2023/07/11 04:13:34;;;;;;;13.93;3.33;;;;;;;;;;4975373;28;20034;-70
2023/07/11 04:15:59;;;;;;;9.85;2.33;;;;;;;;;;4975432;28;20038;-70
2023/07/11 04:18:25;;;;;;;9.32;2.08;;;;;;;;;;4974934;28;20051;-70
2023/07/11 04:20:50;;;;;;;11.15;2.45;;;;;;;;;;4975338;28;20065;-70
2023/07/11 04:23:16;;;;;;;14.32;2.60;;;;;;;;;;4974032;28;20039;-70
2023/07/11 04:25:41;;;;;;;9.07;2.45;;;;;;;;;;4973760;28;20039;-70
2023/07/11 04:28:07;;;;;;;8.60;1.95;;;;;;;;;;4975074;28;20057;-70
2023/07/11 04:30:33;;;;;;;15.82;2.50;;;;;;;;;;4975178;28;20252;-70
2023/07/11 04:32:58;;;;;;;16.15;2.53;;;;;;;;;;4975258;28;20035;-70
2023/07/11 04:35:24;;;;;;;9.18;2.22;;;;;;;;;;4974894;28;20054;-70
2023/07/11 04:37:49;;;;;;;17.55;2.85;;;;;;;;;;4973410;28;20043;-70
2023/07/11 04:40:15;;;;;;;17.85;2.80;;;;;;;;;;4974976;28;20046;-70
2023/07/11 04:42:40;;;;;;;20.30;2.63;;;;;;;;;;4974820;28;20034;-70
2023/07/11 04:45:07;;;;;;;11.07;2.95;;;;;;;;;;4974894;28;20479;-70
2023/07/11 04:47:32;;;;;;;12.48;3.13;;;;;;;;;;4973665;28;20039;-70
2023/07/11 04:49:58;;;;;;;11.90;2.33;;;;;;;;;;4974428;28;20041;-70
2023/07/11 04:52:24;;;;;;;17.52;3.28;;;;;;;;;;4974916;28;20062;-70
2023/07/11 04:54:50;;;;;;;15.55;2.50;;;;;;;;;;4974567;28;20050;-70
2023/07/11 04:57:15;;;;;;;11.75;2.53;;;;;;;;;;4974551;28;20042;-70
2023/07/11 04:59:40;;;;;;;13.55;2.47;;;;;;;;;;4974273;28;20139;-70
2023/07/11 05:02:06;;;;;;;20.30;2.90;;;;;;;;;;4974918;28;20113;-70
2023/07/11 05:04:31;;;;;;;12.05;2.95;;;;;;;;;;4974281;28;20062;-70
2023/07/11 05:07:00;;;;;;;12.40;2.95;;;;;;;;;;4974471;28;20038;-70
2023/07/11 05:09:26;;;;;;;13.63;2.30;;;;;;;;;;4974778;28;20092;-70
2023/07/11 05:11:52;;;;;;;14.00;2.75;;;;;;;;;;4956512;28;20118;-70
2023/07/11 05:14:17;;;;;;;9.88;2.47;;;;;;;;;;4974024;28;20530;-71
2023/07/11 05:16:42;;;;;;;10.48;2.00;;;;;;;;;;4974416;28;20166;-71
2023/07/11 05:19:08;;;;;;;12.63;2.53;;;;;;;;;;4974228;28;20410;-70
2023/07/11 05:21:33;;;;;;;15.57;2.72;;;;;;;;;;4974356;28;20046;-70
2023/07/11 05:24:00;;;;;;;16.92;2.53;;;;;;;;;;4974381;28;20049;-70
2023/07/11 05:26:25;;;;;;;10.52;2.28;;;;;;;;;;4973643;28;20487;-70
2023/07/11 05:28:50;;;;;;;12.40;2.78;;;;;;;;;;4974093;28;20041;-70
2023/07/11 05:31:17;;;;;;;11.80;2.17;;;;;;;;;;4974473;28;20047;-70
2023/07/11 05:33:42;;;;;;;9.88;2.53;;;;;;;;;;4973876;28;20105;-71
2023/07/11 05:38:53;;;;;;;11.70;2.42;;;;;;;;;;4974140;28;20129;-70
2023/07/11 05:41:19;;;;;;;12.48;2.78;;;;;;;;;;4974205;28;20085;-70
2023/07/11 05:43:44;;;;;;;10.68;2.00;;;;;;;;;;4973905;28;20042;-70
2023/07/11 05:46:10;;;;;;;12.77;2.40;;;;;;;;;;4973056;28;20035;-70
2023/07/11 05:48:35;;;;;;;11.70;2.45;;;;;;;;;;4971385;28;20042;-70
2023/07/11 05:51:03;;;;;;;14.55;3.05;;;;;;;;;;4977775;28;20031;-70
2023/07/11 05:53:29;;;;;;;10.70;2.40;;;;;;;;;;4973412;28;20071;-71
2023/07/11 05:55:55;;;;;;;14.15;2.40;;;;;;;;;;4973931;28;20074;-71
2023/07/11 05:58:21;;;;;;;15.77;3.08;;;;;;;;;;4973201;28;20038;-70
2023/07/11 06:00:46;;;;;;;12.35;2.25;;;;;;;;;;4974138;28;20384;-71
2023/07/11 06:03:12;;;;;;;20.92;2.35;;;;;;;;;;4973858;28;20101;-71
2023/07/11 06:05:37;;;;;;;12.38;2.38;;;;;;;;;;4972754;28;20489;-71
2023/07/11 06:08:03;;;;;;;16.75;2.90;;;;;;;;;;4974119;28;20039;-71
2023/07/11 06:10:28;;;;;;;12.27;2.25;;;;;;;;;;4973826;28;20066;-70
2023/07/11 06:12:54;;;;;;;11.30;2.35;;;;;;;;;;4973951;28;20062;-70
2023/07/11 06:15:19;;;;;;;13.52;2.67;;;;;;;;;;4972713;28;20035;-70
2023/07/11 06:17:44;;;;;;;12.13;2.42;;;;;;;;;;4973861;28;20039;-71
2023/07/11 06:20:11;;;;;;;16.05;3.00;;;;;;;;;;4970596;28;20398;-70
2023/07/11 06:22:36;;;;;;;12.20;2.40;;;;;;;;;;4973112;28;20038;-71
2023/07/11 06:25:02;;;;;;;12.98;1.92;;;;;;;;;;4976504;28;20093;-71
2023/07/11 06:27:29;;;;;;;12.93;2.72;;;;;;;;;;4977373;28;20043;-70
2023/07/11 06:29:54;;;;;;;10.40;3.03;;;;;;;;;;4977420;28;20031;-71
2023/07/11 06:32:19;;;;;;;11.25;2.30;;;;;;;;;;4976116;28;20050;-71
2023/07/11 06:34:45;;;;;;;14.77;2.45;;;;;;;;;;4975923;28;20050;-70
2023/07/11 06:37:11;;;;;;;6.65;2.20;;;;;;;;;;4977291;28;20027;-71
2023/07/11 06:39:36;;;;;;;20.23;2.22;;;;;;;;;;4976911;28;20550;-71
2023/07/11 06:42:02;;;;;;;9.45;2.05;;;;;;;;;;4977305;28;20046;-70
2023/07/11 06:44:29;;;;;;;15.43;2.45;;;;;;;;;;4974401;28;20037;-70
2023/07/11 06:46:54;;;;;;;15.27;3.15;;;;;;;;;;4970152;28;20054;-70
2023/07/11 06:49:20;;;;;;;11.73;1.95;;;;;;;;;;4975713;28;20476;-71
2023/07/11 06:51:45;;;;;;;10.68;2.03;;;;;;;;;;4975925;28;20475;-71
2023/07/11 06:54:11;;;;;;;8.60;1.85;;;;;;;;;;4976231;28;20038;-70
2023/07/11 06:56:36;;;;;;;9.73;1.80;;;;;;;;;;4977285;28;20064;-70
2023/07/11 06:59:01;;;;;;;9.40;2.30;;;;;;;;;;4976130;28;20113;-71
2023/07/11 07:01:27;;;;;;;16.25;2.25;;;;;;;;;;4977014;28;20055;-71
2023/07/11 07:03:52;;;;;;;18.27;1.98;;;;;;;;;;4975075;28;20042;-71
2023/07/11 07:06:19;;;;;;;12.98;2.10;;;;;;;;;;4975657;28;20033;-71
2023/07/11 07:08:44;;;;;;;7.93;1.85;;;;;;;;;;4964061;28;20537;-71
2023/07/11 07:11:10;;;;;;;13.95;2.30;;;;;;;;;;4976440;28;20046;-70
2023/07/11 07:13:35;;;;;;;9.70;2.10;;;;;;;;;;4974781;28;20399;-71
2023/07/11 07:16:02;;;;;;;14.43;2.00;;;;;;;;;;4976197;28;20053;-71
2023/07/11 07:18:36;;;;;;;11.32;2.15;;;;;;;;;;4976806;28;20053;-71
2023/07/11 07:21:03;;;;;;;12.18;2.40;;;;;;;;;;4976371;28;20031;-71
2023/07/11 07:23:29;;;;;;;11.90;2.30;;;;;;;;;;4969645;28;20165;-71
2023/07/11 07:25:59;;;;;;;14.02;2.40;;;;;;;;;;4976223;28;20429;-71
2023/07/11 07:28:25;;;;;;;11.35;2.30;;;;;;;;;;4974938;28;20039;-71
2023/07/11 07:30:52;;;;;;;7.57;2.00;;;;;;;;;;4976404;28;20438;-71
2023/07/11 07:33:18;;;;;;;8.95;1.88;;;;;;;;;;4972254;28;20101;-71
2023/07/11 07:35:43;;;;;;;10.95;2.08;;;;;;;;;;4975422;28;20030;-70
2023/07/11 07:38:10;;;;;;;10.02;2.80;;;;;;;;;;4967128;28;20142;-71
2023/07/11 07:40:35;;;;;;;13.88;3.25;;;;;;;;;;4971579;28;20031;-70
2023/07/11 07:43:00;;;;;;;9.52;2.58;;;;;;;;;;4971404;28;20137;-70
2023/07/11 07:45:26;;;;;;;11.82;2.83;;;;;;;;;;4972103;28;20126;-70
2023/07/11 07:47:51;;;;;;;9.75;2.00;;;;;;;;;;4972567;28;20085;-71
2023/07/11 07:50:16;;;;;;;16.17;2.75;;;;;;;;;;4972474;28;20554;-71
2023/07/11 07:52:42;;;;;;;11.10;3.08;;;;;;;;;;4971517;28;20039;-71
2023/07/11 07:55:08;;;;;;;13.68;3.10;;;;;;;;;;4970549;28;20061;-71
2023/07/11 07:57:33;;;;;;;14.02;2.45;;;;;;;;;;4972024;28;20073;-71
2023/07/11 07:59:58;;;;;;;10.48;1.92;;;;;;;;;;4972354;28;20109;-71
2023/07/11 08:02:24;;;;;;;11.95;2.30;;;;;;;;;;4972147;28;20023;-71
2023/07/11 08:04:49;;;;;;;10.45;2.28;;;;;;;;;;4971960;28;20189;-71
2023/07/11 08:07:15;;;;;;;15.88;2.58;;;;;;;;;;4971980;28;20486;-71
2023/07/11 08:09:41;;;;;;;9.10;2.45;;;;;;;;;;4970172;28;20039;-71
2023/07/11 08:12:08;;;;;;;10.98;2.88;;;;;;;;;;4972790;28;20078;-71
2023/07/11 08:14:37;;;;;;;14.55;2.53;;;;;;;;;;4970452;28;20043;-71
2023/07/11 08:17:04;;;;;;;11.10;2.60;;;;;;;;;;4971512;28;20042;-71
2023/07/11 08:19:29;;;;;;;8.98;1.95;;;;;;;;;;4971082;28;20527;-71
2023/07/11 08:21:54;;;;;;;16.17;2.80;;;;;;;;;;4972094;28;20105;-71
2023/07/11 08:24:20;;;;;;;19.48;2.70;;;;;;;;;;4971578;28;20121;-71
2023/07/11 08:26:45;;;;;;;14.15;2.72;;;;;;;;;;4959872;28;20070;-71
2023/07/11 08:29:12;;;;;;;10.60;2.53;;;;;;;;;;4964675;28;20049;-71
2023/07/11 08:31:38;;;;;;;12.60;2.42;;;;;;;;;;4968136;28;20038;-71
2023/07/11 08:34:03;;;;;;;11.10;2.20;;;;;;;;;;4969564;28;20042;-70
2023/07/11 08:36:28;;;;;;;11.50;2.45;;;;;;;;;;4971004;28;20050;-70
2023/07/11 08:38:54;;;;;;;10.63;2.42;;;;;;;;;;4970801;28;20034;-71
2023/07/11 08:41:25;;;;;;;17.30;3.08;;;;;;;;;;4970584;28;20434;-71
2023/07/11 08:43:55;;;;;;;15.35;2.60;;;;;;;;;;4969647;28;20074;-71
2023/07/11 08:46:22;;;;;;;18.55;3.45;;;;;;;;;;4966919;28;20885;-71
2023/07/11 08:48:50;;;;;;;14.93;2.45;;;;;;;;;;4969857;28;20042;-71
2023/07/11 08:51:23;;;;;;;15.27;2.65;;;;;;;;;;4969202;28;20050;-70
2023/07/11 08:53:58;;;;;;;;;;;;;;;;;;4969255;28;20053;-71
2023/07/11 08:56:36;;;;;;;11.48;2.50;;;;;;;;;;4970781;28;19925;-71
2023/07/11 08:59:05;;;;;;;10.10;1.92;;;;;;;;;;4964645;28;20041;-71
2023/07/11 09:01:52;;;;;;;10.20;2.00;;;;;;;;;;4970161;28;20358;-71
2023/07/11 09:04:21;;;;;;;12.00;2.30;;;;;;;;;;4961287;28;20046;-70
2023/07/11 09:06:53;;;;;;;14.23;2.35;;;;;;;;;;4970764;28;20038;-71
2023/07/11 09:09:19;;;;;;;14.97;2.83;;;;;;;;;;4968868;28;20078;-70
2023/07/11 09:12:15;;;;;;;11.65;2.38;;;;;;;;;;4967706;28;20299;-71
2023/07/11 09:14:59;;;;;;;11.18;2.58;;;;;;;;;;4967012;28;20511;-71
2023/07/11 09:17:35;;;;;;;;;;;;;;;;;;4970521;28;20030;-70
2023/07/11 09:20:20;;;;;;;8.18;2.42;;;;;;;;;;4968834;28;19918;-71
2023/07/11 09:23:32;;;;;;;16.35;2.95;;;;;;;;;;4969520;28;20043;-71
2023/07/11 09:26:00;;;;;;;10.23;2.35;;;;;;;;;;4955209;28;20051;-70
2023/07/11 09:28:28;;;;;;;6.63;2.05;;;;;;;;;;4968560;28;20038;-70
2023/07/11 09:31:00;;;;;;;11.52;2.33;;;;;;;;;;4969159;28;20038;-71
2023/07/11 09:33:32;;;;;;;12.20;2.60;;;;;;;;;;4959850;28;20039;-71
2023/07/11 09:35:58;;;;;;;11.27;1.90;;;;;;;;;;4970518;28;20051;-71
2023/07/11 09:38:35;;;;;;;9.63;2.22;;;;;;;;;;4969539;28;20081;-71
2023/07/11 09:41:10;;;;;;;8.68;2.33;;;;;;;;;;4966038;28;20042;-71
2023/07/11 09:43:36;;;;;;;14.38;2.45;;;;;;;;;;4969253;28;20034;-71
2023/07/11 09:46:01;;;;;;;8.63;1.88;;;;;;;;;;4970402;28;20050;-71
2023/07/11 09:48:31;;;;;;;11.40;2.05;;;;;;;;;;4967388;28;20037;-71
2023/07/11 09:51:30;;;;;;;11.63;2.15;;;;;;;;;;4968391;28;20391;-71
2023/07/11 09:53:56;;;;;;;11.90;2.38;;;;;;;;;;4965242;28;20098;-71
2023/07/11 09:56:24;;;;;;;12.70;2.35;;;;;;;;;;4970584;28;20035;-71
2023/07/11 09:58:52;;;;;;;14.55;2.67;;;;;;;;;;4969878;28;20454;-71
2023/07/11 10:01:26;;;;;;;19.88;2.20;;;;;;;;;;4974252;28;20054;-71
2023/07/11 10:03:54;;;;;;;9.00;2.63;;;;;;;;;;4972781;28;20154;-71
2023/07/11 10:06:35;;;;;;;9.40;1.63;;;;;;;;;;4974057;28;20435;-71
2023/07/11 10:09:05;;;;;;;12.00;1.88;;;;;;;;;;4956467;28;20395;-71
2023/07/11 10:11:32;;;;;;;12.75;1.80;;;;;;;;;;4972718;28;20039;-70
2023/07/11 10:13:57;;;;;;;9.30;2.28;;;;;;;;;;4972432;28;20519;-71
2023/07/11 10:16:23;;;;;;;10.07;2.00;;;;;;;;;;4974369;28;20031;-71
2023/07/11 10:18:51;;;;;;;8.18;2.50;;;;;;;;;;4973386;28;20045;-71
2023/07/11 10:21:22;;;;;;;11.68;2.22;;;;;;;;;;4974108;28;20086;-71
2023/07/11 10:23:49;;;;;;;7.70;1.80;;;;;;;;;;4971807;28;20046;-71
2023/07/11 10:26:17;;;;;;;11.80;2.25;;;;;;;;;;4972758;28;20070;-71
2023/07/11 10:28:44;;;;;;;7.22;1.70;;;;;;;;;;4973223;28;20391;-70
2023/07/11 10:31:19;;;;;;;9.80;2.40;;;;;;;;;;4971480;28;20043;-70
2023/07/11 10:33:51;;;;;;;10.43;2.63;;;;;;;;;;4966759;28;20042;-71
2023/07/11 10:36:30;;;;;;;11.32;2.05;;;;;;;;;;4972652;28;20400;-71
2023/07/11 10:39:01;;;;;;;8.98;2.42;;;;;;;;;;4968754;28;20118;-70
2023/07/11 10:41:36;;;;;;;14.02;2.65;;;;;;;;;;4967287;28;20410;-70
2023/07/11 10:44:04;;;;;;;11.88;2.10;;;;;;;;;;4962504;28;20034;-70
2023/07/11 10:46:41;;;;;;;15.48;2.20;;;;;;;;;;4972206;28;20065;-70
2023/07/11 10:49:15;;;;;;;12.18;2.35;;;;;;;;;;4972793;28;20035;-70
2023/07/11 10:51:51;;;;;;;11.95;2.03;;;;;;;;;;4971386;28;20050;-70
2023/07/11 10:54:33;;;;;;;10.15;2.13;;;;;;;;;;4971454;28;20042;-71
2023/07/11 10:57:01;;;;;;;11.10;2.10;;;;;;;;;;4970113;28;20034;-71
2023/07/11 10:59:30;;;;;;;12.93;2.22;;;;;;;;;;4968263;28;20043;-70
2023/07/11 11:02:11;;;;;;;9.50;2.50;;;;;;;;;;4970483;28;20433;-70
2023/07/11 11:05:02;;;;;;;9.45;2.05;;;;;;;;;;4971085;28;20039;-70
2023/07/11 11:07:34;;;;;;;8.55;2.00;;;;;;;;;;4963264;28;20035;-70
2023/07/11 11:10:09;;;;;;;9.65;1.88;;;;;;;;;;4968308;28;20050;-70
2023/07/11 11:12:40;;;;;;;11.43;2.50;;;;;;;;;;4972324;28;20081;-70
2023/07/11 11:15:37;;;;;;;12.93;2.83;;;;;;;;;;4969962;28;20054;-70
2023/07/11 11:18:15;;;;;;;6.75;2.13;;;;;;;;;;4972729;28;20038;-70
2023/07/11 11:20:50;;;;;;;7.38;1.85;;;;;;;;;;4970296;28;20035;-70
2023/07/11 11:23:35;;;;;;;12.00;2.35;;;;;;;;;;4970796;28;20057;-70
2023/07/11 11:26:06;;;;;;;8.52;2.42;;;;;;;;;;4971563;28;20224;-70
2023/07/11 11:28:55;;;;;;;15.88;2.38;;;;;;;;;;4972157;28;20374;-70
2023/07/11 11:31:24;;;;;;;11.35;2.55;;;;;;;;;;4967424;28;20046;-70
2023/07/11 11:33:55;;;;;;;14.15;1.98;;;;;;;;;;4972414;28;20070;-70
2023/07/11 11:36:29;;;;;;;13.38;2.45;;;;;;;;;;4972569;28;20434;-70
2023/07/11 11:39:04;;;;;;;11.18;2.33;;;;;;;;;;4972473;28;20047;-70
2023/07/11 11:41:36;;;;;;;13.50;3.35;;;;;;;;;;4972255;28;20101;-70
2023/07/11 11:44:03;;;;;;;14.05;2.45;;;;;;;;;;4961936;28;20122;-70
2023/07/11 11:46:29;;;;;;;11.73;2.65;;;;;;;;;;4971246;28;20042;-70
2023/07/11 11:48:57;;;;;;;8.30;2.38;;;;;;;;;;4968604;28;20046;-70
2023/07/11 11:51:23;;;;;;;10.20;2.55;;;;;;;;;;4970833;28;20041;-71
2023/07/11 11:54:06;;;;;;;10.32;2.55;;;;;;;;;;4967340;28;20077;-70
2023/07/11 11:56:34;;;;;;;11.50;2.17;;;;;;;;;;4969199;28;20043;-70
2023/07/11 11:59:02;;;;;;;14.15;3.20;;;;;;;;;;4971529;28;20482;-70
2023/07/11 12:01:30;;;;;;;11.82;2.42;;;;;;;;;;4968161;28;20372;-70
2023/07/11 12:03:55;;;;;;;6.57;1.90;;;;;;;;;;4971255;28;20046;-70
2023/07/11 12:06:41;;;;;;;6.60;1.83;;;;;;;;;;4968559;28;20485;-71
2023/07/11 12:09:16;;;;;;;9.50;1.75;;;;;;;;;;4966745;28;20050;-70
2023/07/11 12:12:01;;;;;;;7.93;1.90;;;;;;;;;;4971174;28;20038;-70
2023/07/11 12:14:43;;;;;;;12.20;2.50;;;;;;;;;;4969389;28;20054;-70
2023/07/11 12:17:33;;;;;;;12.15;2.17;;;;;;;;;;4971335;28;20039;-71
2023/07/11 12:20:05;;;;;;;9.82;2.40;;;;;;;;;;4955848;28;20081;-71
2023/07/11 12:22:52;;;;;;;7.72;2.17;;;;;;;;;;4970416;28;20058;-71
2023/07/11 12:25:28;;;;;;;7.72;1.88;;;;;;;;;;4969182;28;20038;-70
2023/07/11 12:27:53;;;;;;;6.65;1.50;;;;;;;;;;4964196;28;20395;-71
2023/07/11 12:30:34;;;;;;;12.05;1.75;;;;;;;;;;4959739;28;20046;-71
2023/07/11 12:33:21;;;;;;;10.98;1.95;;;;;;;;;;4967797;28;20046;-71
2023/07/11 12:35:48;;;;;;;6.82;1.75;;;;;;;;;;4970170;28;20544;-71
2023/07/11 12:38:28;;;;;;;6.40;1.80;;;;;;;;;;4956080;28;20502;-71
2023/07/11 12:41:39;;;;;;;8.77;1.90;;;;;;;;;;4963090;28;20039;-71
2023/07/11 12:44:11;;;;;;;7.15;1.73;;;;;;;;;;4968730;28;20051;-71
2023/07/11 12:46:37;;;;;;;9.75;2.35;;;;;;;;;;4969493;28;20376;-71
2023/07/11 12:49:12;;;;;;;6.60;1.73;;;;;;;;;;4970483;28;20038;-71
2023/07/11 12:51:38;;;;;;;7.10;1.70;;;;;;;;;;4999439;28;20066;-71
2023/07/11 12:54:09;;;;;;;8.20;1.85;;;;;;;;;;4969295;28;20143;-71
2023/07/11 12:56:35;;;;;;;6.85;1.60;;;;;;;;;;4971975;28;20383;-71
2023/07/11 12:59:01;;;;;;;10.35;2.42;;;;;;;;;;4969596;28;20062;-71
2023/07/11 13:01:29;;;;;;;10.35;1.70;;;;;;;;;;4968545;28;20086;-71
2023/07/11 13:03:54;;;;;;;8.30;1.70;;;;;;;;;;4969633;28;20035;-71
2023/07/11 13:06:23;;;;;;;6.93;1.48;;;;;;;;;;4971022;28;20049;-71
2023/07/11 13:08:49;;;;;;;6.40;1.75;;;;;;;;;;4969581;28;20042;-69
2023/07/11 13:11:20;;;;;;;11.27;1.90;;;;;;;;;;4971289;28;20044;-71
2023/07/11 13:13:46;;;;;;;6.75;1.80;;;;;;;;;;4970200;28;20046;-72
2023/07/11 13:16:12;;;;;;;5.93;1.92;;;;;;;;;;4969906;28;20081;-71
2023/07/11 13:18:48;;;;;;;10.20;2.85;;;;;;;;;;4969958;28;20038;-71
2023/07/11 13:21:13;;;;;;;12.05;2.45;;;;;;;;;;4969088;28;20134;-71
2023/07/11 13:23:42;;;;;;;7.70;1.58;;;;;;;;;;4968946;28;20043;-71
2023/07/11 13:26:23;;;;;;;9.15;2.13;;;;;;;;;;4969033;28;20131;-71
2023/07/11 13:29:04;;;;;;;9.23;2.33;;;;;;;;;;4970048;28;20479;-71
2023/07/11 13:31:31;;;;;;;6.82;1.63;;;;;;;;;;4963812;28;20047;-71
2023/07/11 13:34:10;;;;;;;9.98;1.85;;;;;;;;;;4966444;28;20122;-71
2023/07/11 13:36:36;;;;;;;8.35;1.60;;;;;;;;;;4970359;28;20039;-71
2023/07/11 13:39:05;;;;;;;12.30;2.05;;;;;;;;;;4971143;28;20046;-71
2023/07/11 13:41:41;;;;;;;8.35;1.65;;;;;;;;;;4967497;28;20038;-71
2023/07/11 13:44:36;;;;;;;6.10;1.80;;;;;;;;;;4969617;28;20852;-71
2023/07/11 13:47:11;;;;;;;10.23;2.20;;;;;;;;;;4970856;28;20118;-71
2023/07/11 13:49:39;;;;;;;7.40;1.83;;;;;;;;;;4970826;28;20066;-71
2023/07/11 13:52:14;;;;;;;6.35;1.70;;;;;;;;;;4971143;28;20062;-71
2023/07/11 13:54:40;;;;;;;8.90;2.08;;;;;;;;;;4969803;28;20491;-71
2023/07/11 13:57:06;;;;;;;8.75;1.80;;;;;;;;;;4970489;28;20121;-71
2023/07/11 13:59:31;;;;;;;8.80;1.70;;;;;;;;;;4960077;28;20129;-71
2023/07/11 14:01:57;;;;;;;9.25;1.70;;;;;;;;;;4969984;28;20048;-71
2023/07/11 14:04:32;;;;;;;11.48;1.92;;;;;;;;;;4969484;28;20391;-71
2023/07/11 14:06:58;;;;;;;7.97;1.80;;;;;;;;;;4969752;28;20039;-71
2023/07/11 14:09:25;;;;;;;11.85;2.45;;;;;;;;;;4969386;28;20050;-70
2023/07/11 14:11:50;;;;;;;9.82;2.22;;;;;;;;;;4968950;28;20070;-71
2023/07/11 14:14:18;;;;;;;13.68;2.20;;;;;;;;;;4970185;28;20073;-71
2023/07/11 14:16:44;;;;;;;11.63;2.00;;;;;;;;;;4970001;28;20039;-71
2023/07/11 14:19:20;;;;;;;9.38;1.92;;;;;;;;;;4965004;28;20031;-71
2023/07/11 14:21:46;;;;;;;8.98;2.08;;;;;;;;;;4967238;28;20047;-71
2023/07/11 14:24:12;;;;;;;7.30;2.05;;;;;;;;;;4968273;28;20029;-71
2023/07/11 14:26:37;;;;;;;9.93;2.10;;;;;;;;;;4969769;28;20042;-70
2023/07/11 14:29:10;;;;;;;8.88;1.63;;;;;;;;;;4968746;28;20054;-71
2023/07/11 14:31:35;;;;;;;4.90;1.67;;;;;;;;;;4968255;28;20027;-71
2023/07/11 14:34:01;;;;;;;7.22;1.75;;;;;;;;;;4970367;28;20467;-71
2023/07/11 14:36:26;;;;;;;8.60;1.50;;;;;;;;;;4968936;28;20443;-71
2023/07/11 14:38:51;;;;;;;8.68;1.67;;;;;;;;;;4969251;28;20454;-71
2023/07/11 14:41:17;;;;;;;10.88;2.05;;;;;;;;;;4969251;28;20472;-71
2023/07/11 14:43:42;;;;;;;6.53;1.38;;;;;;;;;;4969344;28;20051;-70
2023/07/11 14:46:07;;;;;;;6.28;1.63;;;;;;;;;;4973302;28;20113;-71